Time;durP1;ratioP1;P1;durP2;ratioP2;P2;SDS_P1;SDS_P2;PMS_P1;PMS_P2;Temp;Humidity;BMP_temperature;BMP_pressure;BME280_temperature;BME280_humidity;BME280_pressure;Samples;Min_cycle;Max_cycle;Signal;HPM_P1;HPM_P2
2022/12/10 00:00:06;;;;;;;25.98;16.40;;;;;;;0.48;64.57;99012.56;10429274;28;20404;-61
2022/12/10 00:05:08;;;;;;;25.80;16.33;;;;;;;0.47;64.44;99004.91;10426203;28;20045;-62
2022/12/10 00:10:10;;;;;;;27.17;16.77;;;;;;;0.44;64.53;99005.84;10426317;28;20049;-61
2022/12/10 00:15:11;;;;;;;25.42;17.23;;;;;;;0.53;64.58;99018.41;10431357;28;20053;-61
2022/12/10 00:20:14;;;;;;;25.38;17.60;;;;;;;0.56;64.54;99003.78;10426064;28;20479;-61
2022/12/10 00:25:16;;;;;;;26.60;17.42;;;;;;;0.55;64.42;99013.22;10426451;28;20069;-61
2022/12/10 00:30:18;;;;;;;28.90;18.42;;;;;;;0.45;64.93;99016.97;10431131;28;20119;-61
2022/12/10 00:35:19;;;;;;;26.02;18.40;;;;;;;0.56;64.70;99019.19;10426308;28;20064;-61
2022/12/10 00:40:22;;;;;;;22.75;16.90;;;;;;;0.58;64.63;99017.41;10425617;28;20435;-60
2022/12/10 00:45:24;;;;;;;25.75;18.38;;;;;;;0.60;64.38;99013.91;10429129;28;20056;-61
2022/12/10 00:50:25;;;;;;;26.17;17.98;;;;;;;0.71;64.51;99016.13;10438142;28;20376;-61
2022/12/10 00:55:27;;;;;;;28.95;19.77;;;;;;;0.74;64.05;99016.84;10435344;28;20056;-61
2022/12/10 01:00:28;;;;;;;25.73;17.35;;;;;;;0.73;64.02;99009.19;10424388;28;20520;-61
2022/12/10 01:05:30;;;;;;;25.02;17.63;;;;;;;0.73;63.88;99014.34;10425999;28;20045;-61
2022/12/10 01:10:32;;;;;;;24.17;18.08;;;;;;;0.68;63.54;99014.50;10435467;28;20052;-61
2022/12/10 01:15:37;;;;;;;24.33;17.02;;;;;;;0.72;63.69;99021.22;10424529;28;20056;-61
2022/12/10 01:20:39;;;;;;;23.67;16.85;;;;;;;0.74;63.57;99027.13;10430284;28;20056;-61
2022/12/10 01:25:41;;;;;;;21.35;15.05;;;;;;;0.84;63.24;99032.78;10432775;28;20045;-61
2022/12/10 01:30:42;;;;;;;19.80;14.05;;;;;;;0.59;62.88;99040.50;10430663;28;20057;-61
2022/12/10 01:35:44;;;;;;;21.90;15.20;;;;;;;0.53;63.31;99048.44;10432152;28;20055;-61
2022/12/10 01:40:45;;;;;;;20.77;15.05;;;;;;;0.53;63.26;99056.16;10439933;28;20094;-61
2022/12/10 01:45:47;;;;;;;20.95;13.13;;;;;;;0.55;62.88;99054.38;10433158;28;20497;-61
2022/12/10 01:50:49;;;;;;;15.10;10.23;;;;;;;0.42;62.35;99066.78;10447394;28;20052;-61
2022/12/10 01:55:50;;;;;;;16.40;11.10;;;;;;;0.41;62.60;99069.41;10440356;28;20513;-61
2022/12/10 02:01:23;;;;;;;17.63;11.73;;;;;;;0.52;62.03;99075.88;10431430;28;20511;-61
2022/12/10 02:06:27;;;;;;;15.80;11.52;;;;;;;0.53;62.19;99079.31;10430335;28;20497;-62
2022/12/10 02:11:37;;;;;;;18.00;12.13;;;;;;;0.42;62.08;99073.69;10434445;28;20481;-61
2022/12/10 02:16:47;;;;;;;15.57;10.75;;;;;;;0.34;61.83;99071.34;10431038;28;20363;-61
2022/12/10 02:21:51;;;;;;;15.07;11.37;;;;;;;0.31;62.17;99071.47;10439561;28;20057;-61
2022/12/10 02:27:05;;;;;;;13.38;10.13;;;;;;;0.32;61.50;99065.41;10450040;28;20493;-61
2022/12/10 02:32:18;;;;;;;14.60;10.55;;;;;;;0.40;61.77;99054.91;10441848;28;20056;-61
2022/12/10 02:37:31;;;;;;;17.45;11.88;;;;;;;0.42;62.00;99056.50;10427569;28;20064;-61
2022/12/10 02:42:37;;;;;;;14.27;10.75;;;;;;;0.42;61.94;99055.69;10476840;28;20053;-62
2022/12/10 02:47:40;;;;;;;17.35;12.30;;;;;;;0.44;61.79;99053.91;10431450;28;20052;-61
2022/12/10 02:52:42;;;;;;;17.13;11.63;;;;;;;0.58;61.65;99058.59;10428766;28;20045;-61
2022/12/10 02:58:23;;;;;;;15.13;11.57;;;;;;;0.52;61.22;99057.88;10430462;28;20080;-61
2022/12/10 03:03:44;;;;;;;16.70;11.77;;;;;;;0.49;61.70;99070.00;10429155;28;20041;-61
2022/12/10 03:08:48;;;;;;;16.52;11.10;;;;;;;0.65;61.62;99067.78;10440112;28;20429;-61
2022/12/10 03:14:11;;;;;;;17.48;11.18;;;;;;;0.61;61.16;99054.16;10442290;28;20049;-61
2022/12/10 03:19:19;;;;;;;14.70;11.30;;;;;;;0.68;61.29;99058.22;10449558;28;20041;-61
2022/12/10 03:24:22;;;;;;;15.43;11.18;;;;;;;0.67;61.07;99053.16;10438761;28;20065;-61
2022/12/10 03:29:28;;;;;;;16.33;11.38;;;;;;;0.68;61.08;99057.38;10434908;28;20048;-61
2022/12/10 03:34:30;;;;;;;17.60;11.90;;;;;;;0.70;60.93;99042.72;10445183;28;20134;-61
2022/12/10 03:39:33;;;;;;;16.80;12.25;;;;;;;0.72;61.20;99052.09;10437056;28;20057;-61
2022/12/10 03:44:37;;;;;;;17.35;11.55;;;;;;;0.69;61.37;99049.59;10431539;28;20053;-61
2022/12/10 03:49:39;;;;;;;17.88;13.20;;;;;;;0.67;60.92;99050.56;10432609;28;20045;-61
2022/12/10 03:54:41;;;;;;;21.17;13.40;;;;;;;0.65;61.37;99052.34;10438463;28;20404;-61
2022/12/10 03:59:43;;;;;;;18.27;12.55;;;;;;;0.68;61.46;99053.09;10434664;28;20036;-61
2022/12/10 04:04:45;;;;;;;17.50;13.02;;;;;;;0.60;61.43;99044.78;10441450;28;20041;-61
2022/12/10 04:09:47;;;;;;;20.10;14.18;;;;;;;0.68;61.64;99041.94;10426195;28;20045;-61
2022/12/10 04:26:51;;;;;;;19.13;13.23;;;;;;;0.64;61.49;99051.50;10423259;28;20056;-61
2022/12/10 04:30:51;;;;;;;16.42;11.77;;;;;;;0.58;61.52;99061.16;10424117;28;20731;-61
2022/12/10 04:35:53;;;;;;;15.27;11.02;;;;;;;0.65;61.28;99054.94;10421973;28;20057;-60
2022/12/10 04:40:55;;;;;;;15.95;11.70;;;;;;;0.52;61.35;99064.78;10422953;28;20064;-61
2022/12/10 04:45:56;;;;;;;16.08;11.43;;;;;;;0.49;61.28;99064.88;10426011;28;20053;-61
2022/12/10 04:50:58;;;;;;;15.18;10.95;;;;;;;0.40;61.07;99071.16;10431503;28;20049;-61
2022/12/10 04:56:01;;;;;;;15.63;10.95;;;;;;;0.40;61.22;99072.91;10426114;28;20713;-61
2022/12/10 05:01:04;;;;;;;16.77;11.27;;;;;;;0.44;60.98;99082.19;10430172;28;20052;-61
2022/12/10 05:06:12;;;;;;;16.85;11.45;;;;;;;0.44;60.99;99075.31;10456653;28;20520;-60
2022/12/10 05:11:16;;;;;;;15.45;11.25;;;;;;;0.36;61.09;99082.41;10434816;28;20685;-61
2022/12/10 05:16:19;;;;;;;14.60;10.38;;;;;;;0.27;61.06;99081.88;10432949;28;20057;-61
2022/12/10 05:21:22;;;;;;;15.52;10.65;;;;;;;0.36;60.88;99085.00;10432844;28;20338;-61
2022/12/10 05:26:24;;;;;;;15.02;11.13;;;;;;;0.26;60.93;99078.47;10433424;28;20360;-61
2022/12/10 05:31:28;;;;;;;13.98;10.30;;;;;;;-0.02;61.10;99082.78;10432274;28;20044;-61
2022/12/10 05:36:31;;;;;;;15.68;11.75;;;;;;;-0.23;61.57;99083.47;10436929;28;20061;-61
2022/12/10 05:41:38;;;;;;;15.52;11.55;;;;;;;-0.44;62.02;99082.34;10433789;28;20056;-61
2022/12/10 05:46:40;;;;;;;17.35;12.30;;;;;;;-0.49;62.15;99091.06;10442524;28;20303;-61
2022/12/10 05:51:42;;;;;;;18.17;13.43;;;;;;;-0.54;62.17;99098.91;10443768;28;20053;-61
2022/12/10 05:56:43;;;;;;;20.48;14.32;;;;;;;-0.59;62.18;99095.63;10432123;28;20122;-60
2022/12/10 06:01:45;;;;;;;21.20;13.90;;;;;;;-0.72;62.44;99107.09;10431021;28;20064;-61
2022/12/10 06:06:48;;;;;;;19.83;14.65;;;;;;;-0.72;62.67;99101.97;10431463;28;20401;-61
2022/12/10 06:11:49;;;;;;;21.30;14.57;;;;;;;-0.86;62.83;99110.94;10431538;28;20514;-60
2022/12/10 06:16:51;;;;;;;19.08;13.02;;;;;;;-0.83;62.98;99115.97;10436162;28;20055;-60
2022/12/10 06:21:52;;;;;;;18.33;13.15;;;;;;;-0.87;63.05;99117.81;10430443;28;20045;-61
2022/12/10 06:26:54;;;;;;;23.23;14.55;;;;;;;-0.83;63.23;99121.13;10442755;28;20075;-60
2022/12/10 06:31:56;;;;;;;21.42;14.98;;;;;;;-0.76;63.22;99126.03;10433384;28;20080;-60
2022/12/10 06:36:58;;;;;;;21.85;14.57;;;;;;;-0.65;63.05;99125.75;10431082;28;20520;-60
2022/12/10 06:41:59;;;;;;;21.90;15.07;;;;;;;-0.70;63.01;99125.06;10443017;28;20056;-61
2022/12/10 06:47:01;;;;;;;23.75;15.55;;;;;;;-0.73;63.11;99136.25;10437674;28;20049;-61
2022/12/10 06:52:03;;;;;;;19.38;13.52;;;;;;;-0.78;63.08;99145.78;10430542;28;20049;-61
2022/12/10 06:57:04;;;;;;;19.17;13.32;;;;;;;-0.87;63.43;99160.59;10437061;28;20060;-61
2022/12/10 07:02:09;;;;;;;22.05;16.05;;;;;;;-0.85;63.48;99163.94;10430382;28;20265;-60
2022/12/10 07:07:11;;;;;;;22.60;15.90;;;;;;;-0.76;63.33;99174.00;10450007;28;20413;-61
2022/12/10 07:12:12;;;;;;;24.40;16.05;;;;;;;-0.85;63.33;99166.53;10427321;28;20049;-60
2022/12/10 07:17:14;;;;;;;22.65;15.65;;;;;;;-1.01;63.46;99172.94;10429382;28;20052;-61
2022/12/10 07:22:16;;;;;;;27.50;18.52;;;;;;;-0.98;63.62;99173.69;10427439;28;20644;-61
2022/12/10 07:27:17;;;;;;;23.50;16.15;;;;;;;-1.11;63.70;99176.59;10426137;28;20056;-61
2022/12/10 07:32:19;;;;;;;24.13;16.75;;;;;;;-1.25;64.00;99172.66;10429441;28;20159;-61
2022/12/10 07:37:21;;;;;;;23.73;16.50;;;;;;;-1.45;64.45;99177.41;10427293;28;20049;-61
2022/12/10 07:42:22;;;;;;;23.90;16.20;;;;;;;-1.32;64.54;99183.09;10438214;28;20037;-60
2022/12/10 07:47:24;;;;;;;24.10;16.25;;;;;;;-1.13;64.13;99186.91;10432284;28;20132;-60
2022/12/10 07:52:26;;;;;;;22.55;15.43;;;;;;;-0.90;64.26;99186.34;10427494;28;20083;-60
2022/12/10 07:57:29;;;;;;;25.73;17.20;;;;;;;-0.73;63.79;99194.44;10438034;28;20041;-61
2022/12/10 08:02:31;;;;;;;20.77;14.55;;;;;;;-0.54;63.54;99191.38;10427118;28;20448;-61
2022/12/10 08:07:33;;;;;;;22.92;16.05;;;;;;;-0.36;63.34;99195.16;10427125;28;20129;-61
2022/12/10 08:12:35;;;;;;;33.17;22.88;;;;;;;-0.23;63.07;99196.50;10437070;28;20057;-60
2022/12/10 08:17:36;;;;;;;36.53;23.05;;;;;;;-0.18;62.83;99197.22;10427554;28;20048;-61
2022/12/10 08:22:39;;;;;;;25.35;16.23;;;;;;;-0.13;62.93;99203.06;10433870;28;20048;-61
2022/12/10 08:27:40;;;;;;;24.77;16.08;;;;;;;-0.05;62.44;99203.69;10425915;28;20052;-60
2022/12/10 08:32:42;;;;;;;19.27;13.90;;;;;;;-0.11;62.54;99198.72;10426616;28;20527;-61
2022/12/10 08:37:44;;;;;;;21.10;15.07;;;;;;;-0.05;62.28;99210.56;10437293;28;20352;-60
2022/12/10 08:42:45;;;;;;;20.85;15.00;;;;;;;0.06;62.02;99213.66;10434626;28;20509;-60
2022/12/10 08:47:47;;;;;;;21.35;14.68;;;;;;;0.01;61.95;99212.94;10433960;28;20059;-61
2022/12/10 08:52:48;;;;;;;51.35;31.17;;;;;;;-0.04;61.74;99212.22;10433828;28;20060;-60
2022/12/10 08:57:50;;;;;;;37.03;24.02;;;;;;;0.04;61.70;99221.41;10474665;28;20430;-61
2022/12/10 09:02:52;;;;;;;35.03;23.05;;;;;;;0.08;61.46;99225.56;10437569;28;20416;-61
2022/12/10 09:07:53;;;;;;;21.77;15.13;;;;;;;0.01;61.05;99224.09;10433320;28;20048;-61
2022/12/10 09:12:55;;;;;;;24.38;16.10;;;;;;;-0.05;61.20;99234.53;10433255;28;20056;-61
2022/12/10 09:18:03;;;;;;;20.02;14.05;;;;;;;0.13;61.15;99246.88;10454137;28;20045;-61
2022/12/10 09:23:05;;;;;;;17.92;13.25;;;;;;;0.20;60.85;99243.22;10431950;28;20041;-61
2022/12/10 09:28:07;;;;;;;18.27;12.77;;;;;;;0.42;60.43;99253.75;10431083;28;20543;-61
2022/12/10 09:33:09;;;;;;;18.23;12.52;;;;;;;0.71;60.18;99253.69;10433520;28;20081;-61
2022/12/10 09:38:10;;;;;;;18.27;12.25;;;;;;;0.79;59.69;99253.47;10431962;28;20531;-61
2022/12/10 09:43:23;;;;;;;17.58;12.48;;;;;;;0.94;58.93;99250.41;10425374;28;20045;-68
2022/12/10 09:48:47;;;;;;;20.23;13.88;;;;;;;0.92;58.61;99247.88;10427053;28;20059;-69
2022/12/10 09:53:58;;;;;;;19.60;13.13;;;;;;;0.81;59.30;99246.53;10429238;28;20060;-68
2022/12/10 09:59:18;;;;;;;20.45;13.65;;;;;;;1.00;58.28;99240.75;10434262;28;20413;-69
2022/12/10 10:04:19;;;;;;;22.67;12.65;;;;;;;1.07;58.55;99237.09;10434023;28;20774;-68
2022/12/10 10:09:21;;;;;;;20.38;13.18;;;;;;;1.10;58.48;99244.72;10429808;28;20648;-68
2022/12/10 10:14:27;;;;;;;17.23;12.27;;;;;;;1.21;58.16;99234.06;10429099;28;20045;-68
2022/12/10 10:19:37;;;;;;;18.20;13.45;;;;;;;1.28;57.82;99238.94;10438220;28;20056;-69
2022/12/10 10:24:45;;;;;;;20.43;13.33;;;;;;;1.22;57.69;99248.59;10426857;28;20033;-69
2022/12/10 10:29:50;;;;;;;18.00;13.18;;;;;;;1.33;57.97;99242.22;10409433;28;1136278;-69
2022/12/10 10:34:59;;;;;;;19.90;13.48;;;;;;;1.51;57.79;99238.19;10430435;28;20056;-69
2022/12/10 10:40:02;;;;;;;17.52;12.25;;;;;;;1.66;57.75;99244.53;10429635;28;20390;-69
2022/12/10 10:45:26;;;;;;;18.83;11.93;;;;;;;1.82;57.56;99243.97;10441382;28;20056;-69
2022/12/10 10:50:28;;;;;;;17.27;11.13;;;;;;;1.82;57.44;99243.13;10432251;28;20052;-69
2022/12/10 10:55:35;;;;;;;16.50;11.00;;;;;;;1.91;57.23;99241.03;10434229;28;20045;-69
2022/12/10 11:00:37;;;;;;;16.55;11.50;;;;;;;1.95;56.79;99242.63;10428676;28;20048;-69
2022/12/10 11:05:40;;;;;;;19.45;12.68;;;;;;;2.08;57.02;99237.84;10429547;28;20044;-69
2022/12/10 11:10:51;;;;;;;19.33;12.25;;;;;;;2.22;56.26;99231.31;10428266;28;20045;-69
2022/12/10 11:16:12;;;;;;;21.83;13.30;;;;;;;2.09;56.14;99231.81;10434590;28;20059;-69
2022/12/10 11:21:24;;;;;;;20.48;12.77;;;;;;;2.16;55.88;99235.84;10432451;28;20136;-69
2022/12/10 11:26:49;;;;;;;15.77;11.68;;;;;;;2.35;56.01;99246.31;10434139;28;20051;-68
2022/12/10 11:31:51;;;;;;;16.55;12.25;;;;;;;2.41;55.92;99234.03;10425941;28;20048;-68
2022/12/10 11:37:29;;;;;;;17.23;11.60;;;;;;;2.22;55.04;99231.31;10427962;28;20071;-68
2022/12/10 11:43:07;;;;;;;17.80;11.90;;;;;;;2.00;54.61;99239.88;10430699;28;20075;-68
2022/12/10 11:48:33;;;;;;;18.67;12.95;;;;;;;1.98;55.33;99242.50;10425653;28;20052;-68
2022/12/10 11:53:50;;;;;;;17.75;12.43;;;;;;;2.07;55.98;99242.16;10419908;28;20052;-69
2022/12/10 11:59:31;;;;;;;20.20;13.45;;;;;;;1.88;54.56;99236.00;10422982;28;20056;-68
2022/12/10 12:05:27;;;;;;;19.30;13.90;;;;;;;1.76;55.65;99245.91;10398462;28;20056;-68
2022/12/10 12:11:03;;;;;;;17.60;12.90;;;;;;;1.70;55.74;99256.44;10420181;28;20045;-69
2022/12/10 12:16:48;;;;;;;17.50;11.88;;;;;;;1.64;55.66;99260.06;10421222;28;20060;-68
2022/12/10 12:21:51;;;;;;;18.55;12.90;;;;;;;1.62;56.16;99261.84;10427313;28;20543;-68
2022/12/10 12:27:00;;;;;;;19.27;13.55;;;;;;;1.63;56.03;99265.25;10423227;28;20053;-68
2022/12/10 12:32:20;;;;;;;18.30;12.30;;;;;;;1.49;55.63;99265.72;10425157;28;20462;-68
2022/12/10 12:37:32;;;;;;;14.35;10.52;;;;;;;1.56;56.01;99262.06;10425785;28;20053;-69
2022/12/10 12:42:33;;;;;;;15.30;9.80;;;;;;;1.51;56.37;99261.38;10425154;28;20096;-68
2022/12/10 12:47:50;;;;;;;18.30;11.80;;;;;;;1.56;55.85;99266.38;10424789;28;20037;-68
2022/12/10 12:53:00;;;;;;;18.02;12.38;;;;;;;1.60;56.33;99273.09;10425794;28;20057;-68
2022/12/10 12:58:41;;;;;;;19.90;12.80;;;;;;;1.41;56.14;99284.91;10423790;28;20057;-68
2022/12/10 13:03:44;;;;;;;17.77;12.07;;;;;;;1.38;56.50;99285.84;10411902;28;20079;-68
2022/12/10 13:08:49;;;;;;;21.60;13.35;;;;;;;1.31;56.72;99289.53;10421448;28;20059;-68
2022/12/10 13:14:09;;;;;;;18.25;13.38;;;;;;;1.22;56.37;99288.09;10422465;28;20052;-67
2022/12/10 13:19:19;;;;;;;19.75;13.48;;;;;;;1.17;56.54;99289.13;10432255;28;20060;-67
2022/12/10 13:24:45;;;;;;;19.23;12.93;;;;;;;1.03;56.83;99305.03;10456070;28;20057;-68
2022/12/10 13:30:11;;;;;;;21.45;13.35;;;;;;;1.02;56.44;99298.19;10434663;28;20525;-66
2022/12/10 13:35:16;;;;;;;22.98;14.13;;;;;;;0.93;57.36;99311.31;10446017;28;20051;-67
2022/12/10 13:46:24;;;;;;;20.85;13.85;;;;;;;0.85;56.99;99309.91;10432668;28;20041;-67
2022/12/10 13:51:36;;;;;;;20.77;14.33;;;;;;;0.76;57.07;99329.03;10431008;28;20618;-66
2022/12/10 13:56:47;;;;;;;23.65;15.00;;;;;;;0.70;57.17;99333.50;10428840;28;20316;-67
2022/12/10 14:02:10;;;;;;;21.08;14.77;;;;;;;0.57;57.40;99334.75;10428805;28;20049;-67
2022/12/10 14:07:15;;;;;;;22.23;14.85;;;;;;;0.42;58.29;99341.19;10441865;28;20057;-67
2022/12/10 14:12:24;;;;;;;22.63;15.93;;;;;;;0.57;57.97;99345.03;10434380;28;20103;-67
2022/12/10 14:17:38;;;;;;;24.20;16.67;;;;;;;0.38;57.69;99352.44;10427650;28;20497;-68
2022/12/10 14:22:48;;;;;;;26.60;17.58;;;;;;;0.43;58.50;99355.72;10428710;28;20481;-67
2022/12/10 14:27:54;;;;;;;29.23;18.58;;;;;;;0.54;58.49;99351.94;10426960;28;20053;-67
2022/12/10 14:32:58;;;;;;;26.83;18.58;;;;;;;0.61;58.40;99357.78;10423085;28;20967;-68
2022/12/10 14:38:01;;;;;;;25.15;17.23;;;;;;;0.62;58.18;99364.63;10425558;28;20056;-67
2022/12/10 14:43:11;;;;;;;24.63;17.13;;;;;;;0.33;58.55;99370.56;10424726;28;20057;-67
2022/12/10 14:48:16;;;;;;;27.13;17.10;;;;;;;0.12;58.83;99368.56;10428360;28;20106;-68
2022/12/10 14:53:23;;;;;;;27.67;19.02;;;;;;;0.17;58.68;99378.75;10425270;28;20452;-68
2022/12/10 14:58:38;;;;;;;27.42;19.08;;;;;;;0.16;58.61;99380.47;10426811;28;20052;-68
2022/12/10 15:03:47;;;;;;;25.48;17.92;;;;;;;0.05;58.65;99373.94;10435729;28;20489;-68
2022/12/10 15:08:53;;;;;;;27.33;18.83;;;;;;;-0.10;59.07;99376.88;10430052;28;20045;-68
2022/12/10 15:13:59;;;;;;;26.85;17.58;;;;;;;-0.01;59.12;99382.66;10433795;28;21308;-68
2022/12/10 15:19:28;;;;;;;26.50;17.67;;;;;;;-0.03;58.67;99383.56;10424774;28;20048;-67
2022/12/10 15:24:40;;;;;;;26.98;18.80;;;;;;;-0.06;59.34;99375.91;10426013;28;20056;-67
2022/12/10 15:29:44;;;;;;;27.90;19.08;;;;;;;-0.11;59.56;99381.19;10432650;28;20701;-67
2022/12/10 15:34:55;;;;;;;31.38;20.60;;;;;;;0.09;59.12;99388.38;10428081;28;20051;-68
2022/12/10 15:40:00;;;;;;;31.00;20.97;;;;;;;0.10;58.97;99390.06;10427502;28;20052;-67
2022/12/10 15:45:15;;;;;;;27.77;19.08;;;;;;;0.15;59.13;99393.38;10426468;28;20416;-68
2022/12/10 15:50:18;;;;;;;28.77;19.65;;;;;;;0.13;58.85;99395.13;10424823;28;20045;-61
2022/12/10 15:55:19;;;;;;;31.60;20.10;;;;;;;0.11;58.97;99386.63;10427159;28;20049;-60
2022/12/10 16:00:30;;;;;;;27.38;17.83;;;;;;;-0.06;58.58;99399.03;10424558;28;20052;-60
2022/12/10 16:05:37;;;;;;;31.63;18.23;;;;;;;-0.11;58.99;99398.34;10438064;28;20060;-60
2022/12/10 16:10:39;;;;;;;27.55;18.80;;;;;;;-0.11;59.11;99403.47;10426933;28;20425;-60
2022/12/10 16:15:51;;;;;;;32.47;19.45;;;;;;;-0.13;59.01;99397.53;10425905;28;20045;-60
2022/12/10 16:20:52;;;;;;;30.13;19.38;;;;;;;-0.11;59.35;99395.78;10423003;28;20469;-60
2022/12/10 16:25:54;;;;;;;32.58;20.60;;;;;;;-0.12;59.14;99400.06;10429834;28;20056;-60
2022/12/10 16:30:58;;;;;;;34.25;21.50;;;;;;;0.03;59.31;99403.97;10421979;28;20528;-60
2022/12/10 16:36:02;;;;;;;26.58;18.63;;;;;;;-0.12;59.38;99404.34;10428748;28;20060;-60
2022/12/10 16:41:14;;;;;;;31.65;20.17;;;;;;;-0.22;59.50;99408.88;10426108;28;20072;-59
2022/12/10 16:46:15;;;;;;;29.35;17.85;;;;;;;-0.23;59.50;99409.78;10425070;28;20049;-60
2022/12/10 16:51:25;;;;;;;24.83;17.33;;;;;;;-0.34;59.36;99411.75;10423970;28;20044;-60
2022/12/10 16:56:28;;;;;;;25.52;17.70;;;;;;;-0.35;59.62;99413.47;10436678;28;20049;-61
2022/12/10 17:01:33;;;;;;;27.02;18.20;;;;;;;-0.24;59.29;99414.94;10430806;28;20151;-60
2022/12/10 17:06:35;;;;;;;26.60;17.60;;;;;;;-0.44;59.49;99425.69;10432476;28;20115;-60
2022/12/10 17:11:50;;;;;;;29.27;20.90;;;;;;;-0.33;59.53;99436.53;10433145;28;20053;-60
2022/12/10 17:16:55;;;;;;;31.90;19.17;;;;;;;-0.33;59.55;99428.84;10438224;28;20060;-60
2022/12/10 17:21:57;;;;;;;29.83;19.35;;;;;;;-0.26;59.37;99434.69;10436242;28;20048;-60
2022/12/10 17:27:04;;;;;;;33.30;26.13;;;;;;;-0.22;59.63;99434.56;10432750;28;20551;-60
2022/12/10 17:32:11;;;;;;;27.45;17.88;;;;;;;-0.14;59.10;99431.81;10432815;28;20049;-60
2022/12/10 17:37:18;;;;;;;25.45;16.98;;;;;;;-0.32;59.15;99427.97;10435291;28;20060;-60
2022/12/10 17:42:20;;;;;;;25.17;16.15;;;;;;;-0.44;59.43;99428.25;10473780;28;20049;-60
2022/12/10 17:47:24;;;;;;;23.80;16.42;;;;;;;-0.55;59.20;99433.63;10437429;28;20045;-60
2022/12/10 17:52:26;;;;;;;26.20;17.17;;;;;;;-0.67;59.24;99439.06;10432172;28;20509;-60
2022/12/10 17:57:27;;;;;;;25.08;16.85;;;;;;;-0.63;59.24;99447.53;10435607;28;20467;-60
2022/12/10 18:02:29;;;;;;;24.85;16.45;;;;;;;-0.57;59.41;99444.81;10448387;28;20451;-60
2022/12/10 18:07:31;;;;;;;33.47;19.35;;;;;;;-0.46;60.18;99445.44;10442569;28;20048;-61
2022/12/10 18:12:33;;;;;;;27.48;17.70;;;;;;;-0.33;59.53;99452.81;10431779;28;21182;-60
2022/12/10 18:17:35;;;;;;;26.83;17.83;;;;;;;-0.28;59.30;99450.13;10463335;28;20135;-60
2022/12/10 18:22:37;;;;;;;25.67;17.55;;;;;;;-0.35;59.29;99466.56;10430849;28;21010;-60
2022/12/10 18:27:38;;;;;;;27.30;17.40;;;;;;;-0.41;59.32;99461.56;10429294;28;20053;-60
2022/12/10 18:32:43;;;;;;;26.10;17.67;;;;;;;-0.48;59.61;99471.16;10416443;28;20405;-60
2022/12/10 18:37:46;;;;;;;29.38;19.30;;;;;;;-0.54;59.49;99473.88;10428100;28;20076;-60
2022/12/10 18:42:51;;;;;;;29.23;19.58;;;;;;;-0.54;59.48;99468.72;10432603;28;20052;-60
2022/12/10 18:47:54;;;;;;;30.25;19.55;;;;;;;-0.58;59.70;99471.41;10429740;28;20053;-60
2022/12/10 18:52:59;;;;;;;32.85;19.55;;;;;;;-0.55;59.65;99471.31;10431069;28;20053;-60
2022/12/10 18:58:02;;;;;;;32.40;20.88;;;;;;;-0.50;59.87;99480.63;10429506;28;20393;-60
2022/12/10 19:03:07;;;;;;;33.67;23.88;;;;;;;-0.39;59.76;99483.78;10431433;28;20053;-60
2022/12/10 19:08:13;;;;;;;33.67;22.90;;;;;;;-0.56;59.85;99483.34;10428263;28;20522;-61
2022/12/10 19:13:15;;;;;;;35.40;21.30;;;;;;;-0.58;59.85;99479.09;10429571;28;20053;-60
2022/12/10 19:18:18;;;;;;;32.85;20.75;;;;;;;-0.56;59.88;99480.75;10424616;28;20056;-60
2022/12/10 19:23:19;;;;;;;32.20;20.88;;;;;;;-0.52;59.63;99482.38;10429834;28;20040;-60
2022/12/10 19:28:21;;;;;;;33.95;22.42;;;;;;;-0.51;59.88;99481.50;10427284;28;20144;-60
2022/12/10 19:33:23;;;;;;;35.78;22.48;;;;;;;-0.63;59.67;99484.34;10429150;28;20067;-60
2022/12/10 19:38:24;;;;;;;36.78;22.88;;;;;;;-0.84;59.99;99479.63;10432871;28;20590;-60
2022/12/10 19:43:26;;;;;;;36.83;23.38;;;;;;;-0.80;60.35;99476.13;10428409;28;20095;-60
2022/12/10 19:48:27;;;;;;;36.13;21.90;;;;;;;-0.72;60.29;99473.41;10453746;28;20444;-60
2022/12/10 19:53:36;;;;;;;39.90;23.27;;;;;;;-0.60;60.57;99462.88;10428884;28;20110;-60
2022/12/10 19:58:38;;;;;;;35.83;21.80;;;;;;;-0.48;60.20;99462.59;10450423;28;20414;-60
2022/12/10 20:03:40;;;;;;;36.00;21.63;;;;;;;-0.64;59.74;99461.25;10428468;28;20052;-59
2022/12/10 20:08:41;;;;;;;38.10;23.77;;;;;;;-0.83;60.09;99468.50;10468921;28;20044;-59
2022/12/10 20:13:43;;;;;;;40.38;24.30;;;;;;;-0.95;60.15;99476.47;10442041;28;20048;-60
2022/12/10 20:18:46;;;;;;;41.95;25.38;;;;;;;-0.95;60.48;99479.03;10449135;28;20061;-60
2022/12/10 20:23:47;;;;;;;39.95;23.95;;;;;;;-1.07;60.53;99478.44;10428593;28;20060;-58
2022/12/10 20:28:49;;;;;;;45.05;25.48;;;;;;;-1.03;60.55;99474.94;10425317;28;20057;-60
2022/12/10 20:33:51;;;;;;;41.75;23.88;;;;;;;-1.19;60.72;99471.84;10436325;28;20059;-60
2022/12/10 20:38:53;;;;;;;39.65;23.48;;;;;;;-1.00;60.64;99478.28;10434100;28;20072;-60
2022/12/10 20:43:54;;;;;;;38.15;22.80;;;;;;;-1.01;60.46;99475.75;10435029;28;20052;-60
2022/12/10 20:48:58;;;;;;;40.85;23.73;;;;;;;-1.09;60.37;99480.19;10435761;28;20058;-60
2022/12/10 20:54:00;;;;;;;38.83;23.05;;;;;;;-1.07;60.44;99465.59;10434247;28;20045;-60
2022/12/10 20:59:02;;;;;;;39.45;22.92;;;;;;;-1.15;60.54;99478.59;10454603;28;20048;-60
2022/12/10 21:04:04;;;;;;;47.63;27.00;;;;;;;-1.09;60.51;99467.34;10435247;28;20056;-60
2022/12/10 21:09:05;;;;;;;39.33;23.70;;;;;;;-1.13;60.41;99471.72;10435121;28;20049;-60
2022/12/10 21:14:07;;;;;;;39.58;23.65;;;;;;;-1.22;60.76;99472.72;10458378;28;20391;-60
2022/12/10 21:19:29;;;;;;;;;;;;;;;-1.37;61.13;99474.75;10435008;28;20096;-60
2022/12/10 21:24:30;;;;;;;42.25;23.00;;;;;;;-1.02;60.73;99476.63;10433266;28;20258;-60
2022/12/10 21:29:32;;;;;;;40.30;24.60;;;;;;;-1.05;60.80;99472.41;10432903;28;20061;-61
2022/12/10 21:34:33;;;;;;;43.25;24.42;;;;;;;-0.88;60.49;99472.88;10432621;28;20064;-61
2022/12/10 21:39:35;;;;;;;43.90;25.13;;;;;;;-0.85;60.40;99457.44;10437104;28;20057;-60
2022/12/10 21:44:37;;;;;;;41.90;24.67;;;;;;;-0.94;60.13;99457.63;10432100;28;20041;-61
2022/12/10 21:49:38;;;;;;;41.15;24.80;;;;;;;-1.08;60.30;99451.91;10443817;28;20049;-61
2022/12/10 21:54:40;;;;;;;41.55;24.38;;;;;;;-1.05;60.51;99451.03;10464006;28;20056;-60
2022/12/10 21:59:42;;;;;;;41.03;25.17;;;;;;;-1.07;60.16;99448.50;10430765;28;20501;-60
2022/12/10 22:04:43;;;;;;;38.78;23.70;;;;;;;-1.07;60.01;99445.06;10433255;28;20243;-61
2022/12/10 22:09:45;;;;;;;40.42;24.00;;;;;;;-1.16;60.45;99449.53;10431831;28;20041;-60
2022/12/10 22:14:46;;;;;;;40.63;25.38;;;;;;;-1.16;60.24;99452.09;10430205;28;20394;-60
2022/12/10 22:19:48;;;;;;;44.03;26.15;;;;;;;-1.13;60.34;99461.44;10434458;28;20056;-60
2022/12/10 22:24:50;;;;;;;42.25;25.15;;;;;;;-1.03;60.50;99456.97;10436934;28;20049;-60
2022/12/10 22:29:51;;;;;;;43.83;25.20;;;;;;;-0.93;60.11;99458.47;10437944;28;20492;-60
2022/12/10 22:34:53;;;;;;;38.25;23.75;;;;;;;-0.88;60.03;99456.66;10430995;28;20140;-60
2022/12/10 22:39:55;;;;;;;41.63;25.00;;;;;;;-0.86;59.69;99453.16;10428717;28;20057;-60
2022/12/10 22:44:56;;;;;;;42.00;25.85;;;;;;;-1.02;59.79;99454.34;10429956;28;20040;-60
2022/12/10 22:49:58;;;;;;;41.70;25.55;;;;;;;-0.88;59.89;99454.91;10431785;28;20060;-60
2022/12/10 22:55:00;;;;;;;43.00;25.58;;;;;;;-0.80;59.48;99444.50;10429407;28;20127;-60
2022/12/10 23:00:10;;;;;;;41.70;25.58;;;;;;;-0.84;59.69;99437.75;10437472;28;20053;-60
2022/12/10 23:05:12;;;;;;;42.17;25.63;;;;;;;-0.74;59.83;99434.09;10431559;28;20049;-60
2022/12/10 23:10:14;;;;;;;42.72;24.48;;;;;;;-0.88;59.90;99434.38;10433244;28;20049;-60
2022/12/10 23:15:16;;;;;;;44.08;25.33;;;;;;;-0.80;60.06;99429.91;10431900;28;20048;-60
2022/12/10 23:20:18;;;;;;;50.28;27.02;;;;;;;-0.80;59.92;99421.41;10431194;28;20284;-60
2022/12/10 23:25:19;;;;;;;46.45;26.40;;;;;;;-0.71;59.84;99421.19;10429326;28;20401;-60
2022/12/10 23:30:21;;;;;;;48.83;27.10;;;;;;;-0.65;59.82;99429.59;10429014;28;20056;-61
2022/12/10 23:35:23;;;;;;;48.10;27.90;;;;;;;-0.74;59.99;99424.66;10427290;28;20049;-60